sensor_id;sensor_type;location;lat;lon;timestamp;temperature;humidity
770;DHT22;368;48.698;9.116;2024-03-22T00:01:08;7.40;99.90
770;DHT22;368;48.698;9.116;2024-03-22T00:03:35;7.50;99.90
770;DHT22;368;48.698;9.116;2024-03-22T00:06:01;7.30;99.90
770;DHT22;368;48.698;9.116;2024-03-22T00:08:28;7.20;99.90
770;DHT22;368;48.698;9.116;2024-03-22T00:10:54;7.20;99.90
770;DHT22;368;48.698;9.116;2024-03-22T00:13:21;7.30;99.90
770;DHT22;368;48.698;9.116;2024-03-22T00:15:46;7.20;99.90
770;DHT22;368;48.698;9.116;2024-03-22T00:18:15;7.30;99.90
770;DHT22;368;48.698;9.116;2024-03-22T00:20:41;7.50;99.90
770;DHT22;368;48.698;9.116;2024-03-22T00:23:07;7.10;99.90
770;DHT22;368;48.698;9.116;2024-03-22T00:25:33;7.20;99.90
770;DHT22;368;48.698;9.116;2024-03-22T00:28:00;7.10;99.90
770;DHT22;368;48.698;9.116;2024-03-22T00:30:26;6.80;99.90
770;DHT22;368;48.698;9.116;2024-03-22T00:32:54;6.90;99.90
770;DHT22;368;48.698;9.116;2024-03-22T00:35:22;7.00;99.90
770;DHT22;368;48.698;9.116;2024-03-22T00:37:49;6.80;99.90
770;DHT22;368;48.698;9.116;2024-03-22T00:40:15;6.90;99.90
770;DHT22;368;48.698;9.116;2024-03-22T00:42:41;6.70;99.90
770;DHT22;368;48.698;9.116;2024-03-22T00:45:08;6.70;99.90
770;DHT22;368;48.698;9.116;2024-03-22T00:47:34;6.80;99.90
770;DHT22;368;48.698;9.116;2024-03-22T00:50:00;6.80;99.90
770;DHT22;368;48.698;9.116;2024-03-22T00:52:29;6.60;99.90
770;DHT22;368;48.698;9.116;2024-03-22T00:54:55;6.40;99.90
770;DHT22;368;48.698;9.116;2024-03-22T00:57:21;6.20;99.90
770;DHT22;368;48.698;9.116;2024-03-22T00:59:48;6.10;99.90
770;DHT22;368;48.698;9.116;2024-03-22T01:02:14;5.90;99.90
770;DHT22;368;48.698;9.116;2024-03-22T01:04:41;6.30;99.90
770;DHT22;368;48.698;9.116;2024-03-22T01:07:07;6.40;99.90
770;DHT22;368;48.698;9.116;2024-03-22T01:09:35;6.20;99.90
770;DHT22;368;48.698;9.116;2024-03-22T01:12:01;6.20;99.90
770;DHT22;368;48.698;9.116;2024-03-22T01:14:29;6.10;99.90
770;DHT22;368;48.698;9.116;2024-03-22T01:16:55;6.00;99.90
770;DHT22;368;48.698;9.116;2024-03-22T01:19:21;6.10;99.90
770;DHT22;368;48.698;9.116;2024-03-22T01:21:48;6.10;99.90
770;DHT22;368;48.698;9.116;2024-03-22T01:24:15;6.20;99.90
770;DHT22;368;48.698;9.116;2024-03-22T01:26:42;6.10;99.90
770;DHT22;368;48.698;9.116;2024-03-22T01:29:09;6.40;99.90
770;DHT22;368;48.698;9.116;2024-03-22T01:31:35;6.10;99.90
770;DHT22;368;48.698;9.116;2024-03-22T01:34:01;6.10;99.90
770;DHT22;368;48.698;9.116;2024-03-22T01:36:27;5.80;99.90
770;DHT22;368;48.698;9.116;2024-03-22T01:38:54;5.80;99.90
770;DHT22;368;48.698;9.116;2024-03-22T01:41:20;5.80;99.90
770;DHT22;368;48.698;9.116;2024-03-22T01:43:48;5.70;99.90
770;DHT22;368;48.698;9.116;2024-03-22T01:46:14;5.70;99.90
770;DHT22;368;48.698;9.116;2024-03-22T01:48:41;5.80;99.90
770;DHT22;368;48.698;9.116;2024-03-22T01:51:07;5.80;99.90
770;DHT22;368;48.698;9.116;2024-03-22T01:53:35;5.60;99.90
770;DHT22;368;48.698;9.116;2024-03-22T01:56:03;5.30;99.90
770;DHT22;368;48.698;9.116;2024-03-22T01:58:30;5.30;99.90
770;DHT22;368;48.698;9.116;2024-03-22T02:00:57;5.40;99.90
770;DHT22;368;48.698;9.116;2024-03-22T02:03:24;5.50;99.90
770;DHT22;368;48.698;9.116;2024-03-22T02:05:50;5.80;99.90
770;DHT22;368;48.698;9.116;2024-03-22T02:08:16;5.60;99.90
770;DHT22;368;48.698;9.116;2024-03-22T02:10:43;5.70;99.90
770;DHT22;368;48.698;9.116;2024-03-22T02:13:10;5.40;99.90
770;DHT22;368;48.698;9.116;2024-03-22T02:15:35;5.30;99.90
770;DHT22;368;48.698;9.116;2024-03-22T02:18:04;5.40;99.90
770;DHT22;368;48.698;9.116;2024-03-22T02:20:30;5.50;99.90
770;DHT22;368;48.698;9.116;2024-03-22T02:22:57;5.50;99.90
770;DHT22;368;48.698;9.116;2024-03-22T02:25:24;5.40;99.90
770;DHT22;368;48.698;9.116;2024-03-22T02:27:51;5.40;99.90
770;DHT22;368;48.698;9.116;2024-03-22T02:30:17;5.20;99.90
770;DHT22;368;48.698;9.116;2024-03-22T02:32:43;5.20;99.90
770;DHT22;368;48.698;9.116;2024-03-22T02:35:10;5.10;99.90
770;DHT22;368;48.698;9.116;2024-03-22T02:37:37;5.20;99.90
770;DHT22;368;48.698;9.116;2024-03-22T02:40:05;4.90;99.90
770;DHT22;368;48.698;9.116;2024-03-22T02:42:33;5.00;99.90
770;DHT22;368;48.698;9.116;2024-03-22T02:44:59;5.00;99.90
770;DHT22;368;48.698;9.116;2024-03-22T02:47:26;5.30;99.90
770;DHT22;368;48.698;9.116;2024-03-22T02:49:53;5.20;99.90
770;DHT22;368;48.698;9.116;2024-03-22T02:52:19;5.40;99.90
770;DHT22;368;48.698;9.116;2024-03-22T02:54:46;5.20;99.90
770;DHT22;368;48.698;9.116;2024-03-22T02:57:11;5.10;99.90
770;DHT22;368;48.698;9.116;2024-03-22T02:59:40;5.10;99.90
770;DHT22;368;48.698;9.116;2024-03-22T03:02:05;5.00;99.90
770;DHT22;368;48.698;9.116;2024-03-22T03:04:32;5.10;99.90
770;DHT22;368;48.698;9.116;2024-03-22T03:06:58;5.10;99.90
770;DHT22;368;48.698;9.116;2024-03-22T03:09:25;5.10;99.90
770;DHT22;368;48.698;9.116;2024-03-22T03:11:51;5.00;99.90
770;DHT22;368;48.698;9.116;2024-03-22T03:14:17;5.20;99.90
770;DHT22;368;48.698;9.116;2024-03-22T03:16:45;5.10;99.90
770;DHT22;368;48.698;9.116;2024-03-22T03:19:11;5.20;99.90
770;DHT22;368;48.698;9.116;2024-03-22T03:21:37;5.20;99.90
770;DHT22;368;48.698;9.116;2024-03-22T03:24:04;5.30;99.90
770;DHT22;368;48.698;9.116;2024-03-22T03:26:30;5.40;99.90
770;DHT22;368;48.698;9.116;2024-03-22T03:28:57;5.70;99.90
770;DHT22;368;48.698;9.116;2024-03-22T03:31:23;5.60;99.90
770;DHT22;368;48.698;9.116;2024-03-22T03:33:51;5.50;99.90
770;DHT22;368;48.698;9.116;2024-03-22T03:36:16;5.70;99.90
770;DHT22;368;48.698;9.116;2024-03-22T03:38:43;6.00;99.90
770;DHT22;368;48.698;9.116;2024-03-22T03:41:09;5.80;99.90
770;DHT22;368;48.698;9.116;2024-03-22T03:43:36;5.90;99.90
770;DHT22;368;48.698;9.116;2024-03-22T03:46:02;5.70;99.90
770;DHT22;368;48.698;9.116;2024-03-22T03:48:28;5.80;99.90
770;DHT22;368;48.698;9.116;2024-03-22T03:50:56;5.90;99.90
770;DHT22;368;48.698;9.116;2024-03-22T03:53:24;6.00;99.90
770;DHT22;368;48.698;9.116;2024-03-22T03:55:50;6.00;99.90
770;DHT22;368;48.698;9.116;2024-03-22T03:58:17;6.20;99.90
770;DHT22;368;48.698;9.116;2024-03-22T04:00:43;6.10;99.90
770;DHT22;368;48.698;9.116;2024-03-22T04:03:10;6.00;99.90
770;DHT22;368;48.698;9.116;2024-03-22T04:05:36;5.90;99.90
770;DHT22;368;48.698;9.116;2024-03-22T04:08:04;5.70;99.90
770;DHT22;368;48.698;9.116;2024-03-22T04:10:30;5.90;99.90
770;DHT22;368;48.698;9.116;2024-03-22T04:12:57;5.70;99.90
770;DHT22;368;48.698;9.116;2024-03-22T04:15:23;6.00;99.90
770;DHT22;368;48.698;9.116;2024-03-22T04:17:51;5.60;99.90
770;DHT22;368;48.698;9.116;2024-03-22T04:20:17;5.40;99.90
770;DHT22;368;48.698;9.116;2024-03-22T04:22:44;5.70;99.90
770;DHT22;368;48.698;9.116;2024-03-22T04:25:11;5.70;99.90
770;DHT22;368;48.698;9.116;2024-03-22T04:27:38;5.40;99.90
770;DHT22;368;48.698;9.116;2024-03-22T04:30:05;5.80;99.90
770;DHT22;368;48.698;9.116;2024-03-22T04:32:32;5.80;99.90
770;DHT22;368;48.698;9.116;2024-03-22T04:34:58;6.00;99.90
770;DHT22;368;48.698;9.116;2024-03-22T04:37:25;6.00;99.90
770;DHT22;368;48.698;9.116;2024-03-22T04:39:52;6.20;99.90
770;DHT22;368;48.698;9.116;2024-03-22T04:42:20;6.20;99.90
770;DHT22;368;48.698;9.116;2024-03-22T04:44:47;6.10;99.90
770;DHT22;368;48.698;9.116;2024-03-22T04:47:13;6.40;99.90
770;DHT22;368;48.698;9.116;2024-03-22T04:49:39;6.50;99.90
770;DHT22;368;48.698;9.116;2024-03-22T04:52:06;6.40;99.90
770;DHT22;368;48.698;9.116;2024-03-22T04:54:32;6.60;99.90
770;DHT22;368;48.698;9.116;2024-03-22T04:56:59;6.60;99.90
770;DHT22;368;48.698;9.116;2024-03-22T04:59:26;6.60;99.90
770;DHT22;368;48.698;9.116;2024-03-22T05:01:53;6.70;99.90
770;DHT22;368;48.698;9.116;2024-03-22T05:04:19;6.80;99.90
770;DHT22;368;48.698;9.116;2024-03-22T05:06:45;6.70;99.90
770;DHT22;368;48.698;9.116;2024-03-22T05:09:11;6.80;99.90
770;DHT22;368;48.698;9.116;2024-03-22T05:11:38;6.70;99.90
770;DHT22;368;48.698;9.116;2024-03-22T05:14:04;6.70;99.90
770;DHT22;368;48.698;9.116;2024-03-22T05:16:32;6.80;99.90
770;DHT22;368;48.698;9.116;2024-03-22T05:18:58;6.80;99.90
770;DHT22;368;48.698;9.116;2024-03-22T05:21:25;6.70;99.90
770;DHT22;368;48.698;9.116;2024-03-22T05:23:51;6.70;99.90
770;DHT22;368;48.698;9.116;2024-03-22T05:26:17;6.80;99.90
770;DHT22;368;48.698;9.116;2024-03-22T05:28:44;6.60;99.90
770;DHT22;368;48.698;9.116;2024-03-22T05:31:11;6.60;99.90
770;DHT22;368;48.698;9.116;2024-03-22T05:33:38;6.40;99.90
770;DHT22;368;48.698;9.116;2024-03-22T05:36:06;6.70;99.90
770;DHT22;368;48.698;9.116;2024-03-22T05:38:31;6.60;99.90
770;DHT22;368;48.698;9.116;2024-03-22T05:40:58;6.50;99.90
770;DHT22;368;48.698;9.116;2024-03-22T05:43:28;6.50;99.90
770;DHT22;368;48.698;9.116;2024-03-22T05:45:55;6.60;99.90
770;DHT22;368;48.698;9.116;2024-03-22T05:48:21;6.60;99.90
770;DHT22;368;48.698;9.116;2024-03-22T05:50:49;6.60;99.90
770;DHT22;368;48.698;9.116;2024-03-22T05:53:15;6.70;99.90
770;DHT22;368;48.698;9.116;2024-03-22T05:55:42;6.60;99.90
770;DHT22;368;48.698;9.116;2024-03-22T05:58:08;6.40;99.90
770;DHT22;368;48.698;9.116;2024-03-22T06:00:36;6.40;99.90
770;DHT22;368;48.698;9.116;2024-03-22T06:03:02;6.80;99.90
770;DHT22;368;48.698;9.116;2024-03-22T06:05:29;7.00;99.90
770;DHT22;368;48.698;9.116;2024-03-22T06:07:56;6.70;99.90
770;DHT22;368;48.698;9.116;2024-03-22T06:10:23;6.80;99.90
770;DHT22;368;48.698;9.116;2024-03-22T06:12:49;6.80;99.90
770;DHT22;368;48.698;9.116;2024-03-22T06:15:16;7.00;99.90
770;DHT22;368;48.698;9.116;2024-03-22T06:17:42;7.00;99.90
770;DHT22;368;48.698;9.116;2024-03-22T06:20:11;7.00;99.90
770;DHT22;368;48.698;9.116;2024-03-22T06:22:38;7.20;99.90
770;DHT22;368;48.698;9.116;2024-03-22T06:25:07;7.70;99.90
770;DHT22;368;48.698;9.116;2024-03-22T06:27:32;8.60;99.90
770;DHT22;368;48.698;9.116;2024-03-22T06:29:59;9.10;99.90
770;DHT22;368;48.698;9.116;2024-03-22T06:32:25;9.30;99.90
770;DHT22;368;48.698;9.116;2024-03-22T06:34:52;9.30;99.90
770;DHT22;368;48.698;9.116;2024-03-22T06:37:18;9.20;99.90
770;DHT22;368;48.698;9.116;2024-03-22T06:39:45;9.50;99.90
770;DHT22;368;48.698;9.116;2024-03-22T06:42:12;9.80;99.90
770;DHT22;368;48.698;9.116;2024-03-22T06:44:39;9.90;99.90
770;DHT22;368;48.698;9.116;2024-03-22T06:47:05;10.50;99.90
770;DHT22;368;48.698;9.116;2024-03-22T06:49:31;10.30;99.90
770;DHT22;368;48.698;9.116;2024-03-22T06:51:57;10.50;99.90
770;DHT22;368;48.698;9.116;2024-03-22T06:54:24;10.50;99.90
770;DHT22;368;48.698;9.116;2024-03-22T06:56:51;11.00;99.90
770;DHT22;368;48.698;9.116;2024-03-22T06:59:19;11.40;99.90
770;DHT22;368;48.698;9.116;2024-03-22T07:01:45;11.70;99.90
770;DHT22;368;48.698;9.116;2024-03-22T07:04:12;11.90;99.90
770;DHT22;368;48.698;9.116;2024-03-22T07:06:37;12.20;99.90
770;DHT22;368;48.698;9.116;2024-03-22T07:09:04;11.90;99.90
770;DHT22;368;48.698;9.116;2024-03-22T07:11:32;11.90;99.90
770;DHT22;368;48.698;9.116;2024-03-22T07:13:59;12.20;99.90
770;DHT22;368;48.698;9.116;2024-03-22T07:16:26;12.90;99.90
770;DHT22;368;48.698;9.116;2024-03-22T07:18:53;13.40;99.90
770;DHT22;368;48.698;9.116;2024-03-22T07:21:19;13.60;99.90
770;DHT22;368;48.698;9.116;2024-03-22T07:23:45;14.00;99.90
770;DHT22;368;48.698;9.116;2024-03-22T07:26:11;13.90;99.90
770;DHT22;368;48.698;9.116;2024-03-22T07:28:38;14.10;99.90
770;DHT22;368;48.698;9.116;2024-03-22T07:31:04;14.30;99.90
770;DHT22;368;48.698;9.116;2024-03-22T07:33:33;14.20;99.90
770;DHT22;368;48.698;9.116;2024-03-22T07:36:01;14.20;99.90
770;DHT22;368;48.698;9.116;2024-03-22T07:38:28;14.20;99.90
770;DHT22;368;48.698;9.116;2024-03-22T07:40:54;14.50;99.50
770;DHT22;368;48.698;9.116;2024-03-22T07:43:21;14.40;99.20
770;DHT22;368;48.698;9.116;2024-03-22T07:45:47;14.20;99.60
770;DHT22;368;48.698;9.116;2024-03-22T07:48:14;13.80;99.90
770;DHT22;368;48.698;9.116;2024-03-22T07:50:41;13.50;99.90
770;DHT22;368;48.698;9.116;2024-03-22T07:53:08;13.30;99.90
770;DHT22;368;48.698;9.116;2024-03-22T07:55:34;13.40;99.90
770;DHT22;368;48.698;9.116;2024-03-22T07:58:01;13.20;99.90
770;DHT22;368;48.698;9.116;2024-03-22T08:00:28;13.30;99.90
770;DHT22;368;48.698;9.116;2024-03-22T08:02:55;13.90;99.90
770;DHT22;368;48.698;9.116;2024-03-22T08:05:20;14.00;99.90
770;DHT22;368;48.698;9.116;2024-03-22T08:07:49;14.30;99.60
770;DHT22;368;48.698;9.116;2024-03-22T08:10:15;14.50;99.20
770;DHT22;368;48.698;9.116;2024-03-22T08:12:42;15.60;98.10
770;DHT22;368;48.698;9.116;2024-03-22T08:15:08;15.90;97.50
770;DHT22;368;48.698;9.116;2024-03-22T08:17:35;16.40;96.40
770;DHT22;368;48.698;9.116;2024-03-22T08:20:00;17.10;95.30
770;DHT22;368;48.698;9.116;2024-03-22T08:22:28;17.50;94.40
770;DHT22;368;48.698;9.116;2024-03-22T08:24:55;17.60;93.80
770;DHT22;368;48.698;9.116;2024-03-22T08:27:22;17.40;93.60
770;DHT22;368;48.698;9.116;2024-03-22T08:29:48;17.30;93.70
770;DHT22;368;48.698;9.116;2024-03-22T08:32:14;18.00;93.10
770;DHT22;368;48.698;9.116;2024-03-22T08:34:40;18.50;92.50
770;DHT22;368;48.698;9.116;2024-03-22T08:37:07;19.20;91.20
770;DHT22;368;48.698;9.116;2024-03-22T08:39:34;19.60;90.30
770;DHT22;368;48.698;9.116;2024-03-22T08:42:02;19.70;90.10
770;DHT22;368;48.698;9.116;2024-03-22T08:44:30;19.90;87.10
770;DHT22;368;48.698;9.116;2024-03-22T08:46:57;19.40;87.60
770;DHT22;368;48.698;9.116;2024-03-22T08:49:23;18.60;88.00
770;DHT22;368;48.698;9.116;2024-03-22T08:51:50;17.70;90.00
770;DHT22;368;48.698;9.116;2024-03-22T08:54:16;18.10;90.00
770;DHT22;368;48.698;9.116;2024-03-22T08:56:43;18.20;89.00
770;DHT22;368;48.698;9.116;2024-03-22T08:59:10;18.20;87.90
770;DHT22;368;48.698;9.116;2024-03-22T09:01:36;18.10;86.80
770;DHT22;368;48.698;9.116;2024-03-22T09:04:03;18.30;87.00
770;DHT22;368;48.698;9.116;2024-03-22T09:06:30;18.00;88.90
770;DHT22;368;48.698;9.116;2024-03-22T09:08:56;18.00;90.00
770;DHT22;368;48.698;9.116;2024-03-22T09:11:23;18.00;87.50
770;DHT22;368;48.698;9.116;2024-03-22T09:13:51;18.70;86.60
770;DHT22;368;48.698;9.116;2024-03-22T09:16:20;18.60;85.20
770;DHT22;368;48.698;9.116;2024-03-22T09:18:46;18.80;84.70
770;DHT22;368;48.698;9.116;2024-03-22T09:21:12;20.00;81.30
770;DHT22;368;48.698;9.116;2024-03-22T09:23:38;20.90;78.40
770;DHT22;368;48.698;9.116;2024-03-22T09:26:05;21.80;73.60
770;DHT22;368;48.698;9.116;2024-03-22T09:28:31;21.60;72.40
770;DHT22;368;48.698;9.116;2024-03-22T09:30:58;21.60;69.40
770;DHT22;368;48.698;9.116;2024-03-22T09:33:29;22.20;67.30
770;DHT22;368;48.698;9.116;2024-03-22T09:35:56;22.50;65.70
770;DHT22;368;48.698;9.116;2024-03-22T09:38:22;22.80;64.60
770;DHT22;368;48.698;9.116;2024-03-22T09:40:49;23.60;63.00
770;DHT22;368;48.698;9.116;2024-03-22T09:43:20;25.00;60.80
770;DHT22;368;48.698;9.116;2024-03-22T09:45:47;25.00;57.30
770;DHT22;368;48.698;9.116;2024-03-22T09:48:14;24.00;57.70
770;DHT22;368;48.698;9.116;2024-03-22T09:50:42;23.90;58.70
770;DHT22;368;48.698;9.116;2024-03-22T09:53:09;23.60;57.50
770;DHT22;368;48.698;9.116;2024-03-22T09:55:37;22.00;58.70
770;DHT22;368;48.698;9.116;2024-03-22T09:58:03;21.50;62.30
770;DHT22;368;48.698;9.116;2024-03-22T10:00:30;21.50;59.50
770;DHT22;368;48.698;9.116;2024-03-22T10:02:57;21.40;60.30
770;DHT22;368;48.698;9.116;2024-03-22T10:05:24;21.70;60.60
770;DHT22;368;48.698;9.116;2024-03-22T10:07:51;21.70;60.40
770;DHT22;368;48.698;9.116;2024-03-22T10:10:20;21.10;61.60
770;DHT22;368;48.698;9.116;2024-03-22T10:12:46;22.70;59.80
770;DHT22;368;48.698;9.116;2024-03-22T10:15:13;23.20;58.60
770;DHT22;368;48.698;9.116;2024-03-22T10:17:39;21.60;58.30
770;DHT22;368;48.698;9.116;2024-03-22T10:20:07;21.10;60.20
770;DHT22;368;48.698;9.116;2024-03-22T10:22:38;21.30;62.60
770;DHT22;368;48.698;9.116;2024-03-22T10:25:06;21.40;59.30
770;DHT22;368;48.698;9.116;2024-03-22T10:27:33;21.80;62.20
770;DHT22;368;48.698;9.116;2024-03-22T10:30:00;21.60;63.00
770;DHT22;368;48.698;9.116;2024-03-22T10:32:27;22.30;60.50
770;DHT22;368;48.698;9.116;2024-03-22T10:34:54;22.40;59.40
770;DHT22;368;48.698;9.116;2024-03-22T10:37:21;22.80;58.20
770;DHT22;368;48.698;9.116;2024-03-22T10:39:50;22.30;58.60
770;DHT22;368;48.698;9.116;2024-03-22T10:42:19;23.10;60.20
770;DHT22;368;48.698;9.116;2024-03-22T10:44:46;23.30;59.60
770;DHT22;368;48.698;9.116;2024-03-22T10:47:13;24.20;58.70
770;DHT22;368;48.698;9.116;2024-03-22T10:49:41;23.50;58.30
770;DHT22;368;48.698;9.116;2024-03-22T10:52:09;22.60;59.70
770;DHT22;368;48.698;9.116;2024-03-22T10:54:40;22.60;59.70
770;DHT22;368;48.698;9.116;2024-03-22T10:57:09;22.40;59.60
770;DHT22;368;48.698;9.116;2024-03-22T10:59:40;21.90;61.10
770;DHT22;368;48.698;9.116;2024-03-22T11:02:09;22.40;59.80
770;DHT22;368;48.698;9.116;2024-03-22T11:04:37;23.10;58.60
770;DHT22;368;48.698;9.116;2024-03-22T11:07:02;23.90;57.50
770;DHT22;368;48.698;9.116;2024-03-22T11:09:29;24.90;55.70
770;DHT22;368;48.698;9.116;2024-03-22T11:11:56;26.10;54.30
770;DHT22;368;48.698;9.116;2024-03-22T11:14:24;26.30;56.40
770;DHT22;368;48.698;9.116;2024-03-22T11:16:51;24.90;54.10
770;DHT22;368;48.698;9.116;2024-03-22T11:19:19;25.30;54.40
770;DHT22;368;48.698;9.116;2024-03-22T11:21:45;24.50;54.70
770;DHT22;368;48.698;9.116;2024-03-22T11:24:11;26.20;54.30
770;DHT22;368;48.698;9.116;2024-03-22T11:26:37;24.90;54.80
770;DHT22;368;48.698;9.116;2024-03-22T11:29:04;25.80;52.90
770;DHT22;368;48.698;9.116;2024-03-22T11:31:30;26.20;52.60
770;DHT22;368;48.698;9.116;2024-03-22T11:33:58;26.40;53.20
770;DHT22;368;48.698;9.116;2024-03-22T11:36:25;26.00;54.40
770;DHT22;368;48.698;9.116;2024-03-22T11:38:52;26.30;51.20
770;DHT22;368;48.698;9.116;2024-03-22T11:41:24;26.70;52.60
770;DHT22;368;48.698;9.116;2024-03-22T11:43:53;26.30;52.30
770;DHT22;368;48.698;9.116;2024-03-22T11:46:19;27.50;50.70
770;DHT22;368;48.698;9.116;2024-03-22T11:48:51;28.10;51.80
770;DHT22;368;48.698;9.116;2024-03-22T11:51:18;28.00;49.00
770;DHT22;368;48.698;9.116;2024-03-22T11:53:49;28.40;47.70
770;DHT22;368;48.698;9.116;2024-03-22T11:56:17;27.40;48.00
770;DHT22;368;48.698;9.116;2024-03-22T11:58:45;26.80;48.60
770;DHT22;368;48.698;9.116;2024-03-22T12:01:12;26.00;49.50
770;DHT22;368;48.698;9.116;2024-03-22T12:03:39;24.70;50.40
770;DHT22;368;48.698;9.116;2024-03-22T12:06:09;24.70;52.50
770;DHT22;368;48.698;9.116;2024-03-22T12:08:37;24.40;51.70
770;DHT22;368;48.698;9.116;2024-03-22T12:11:04;23.40;52.90
770;DHT22;368;48.698;9.116;2024-03-22T12:13:31;22.20;54.40
770;DHT22;368;48.698;9.116;2024-03-22T12:15:57;22.40;55.00
770;DHT22;368;48.698;9.116;2024-03-22T12:18:23;22.30;55.50
770;DHT22;368;48.698;9.116;2024-03-22T12:20:50;22.30;54.80
770;DHT22;368;48.698;9.116;2024-03-22T12:23:16;21.60;55.50
770;DHT22;368;48.698;9.116;2024-03-22T12:25:44;21.30;55.90
770;DHT22;368;48.698;9.116;2024-03-22T12:28:10;21.20;58.70
770;DHT22;368;48.698;9.116;2024-03-22T12:30:36;21.20;59.00
770;DHT22;368;48.698;9.116;2024-03-22T12:33:02;21.30;62.30
770;DHT22;368;48.698;9.116;2024-03-22T12:35:31;21.40;58.20
770;DHT22;368;48.698;9.116;2024-03-22T12:37:58;21.70;56.70
770;DHT22;368;48.698;9.116;2024-03-22T12:40:24;21.90;58.10
770;DHT22;368;48.698;9.116;2024-03-22T12:42:52;22.40;58.40
770;DHT22;368;48.698;9.116;2024-03-22T12:45:18;24.00;56.60
770;DHT22;368;48.698;9.116;2024-03-22T12:47:44;24.70;54.60
770;DHT22;368;48.698;9.116;2024-03-22T12:50:11;24.90;54.20
770;DHT22;368;48.698;9.116;2024-03-22T12:52:38;25.90;53.10
770;DHT22;368;48.698;9.116;2024-03-22T12:55:05;26.40;52.70
770;DHT22;368;48.698;9.116;2024-03-22T12:57:31;26.10;52.20
770;DHT22;368;48.698;9.116;2024-03-22T12:59:59;25.00;54.60
770;DHT22;368;48.698;9.116;2024-03-22T13:02:25;24.10;54.70
770;DHT22;368;48.698;9.116;2024-03-22T13:04:52;23.50;54.50
770;DHT22;368;48.698;9.116;2024-03-22T13:07:19;23.00;55.10
770;DHT22;368;48.698;9.116;2024-03-22T13:09:46;23.10;56.70
770;DHT22;368;48.698;9.116;2024-03-22T13:12:12;22.90;55.40
770;DHT22;368;48.698;9.116;2024-03-22T13:14:39;23.00;55.70
770;DHT22;368;48.698;9.116;2024-03-22T13:17:06;22.60;55.80
770;DHT22;368;48.698;9.116;2024-03-22T13:19:34;22.40;57.00
770;DHT22;368;48.698;9.116;2024-03-22T13:22:00;22.40;56.50
770;DHT22;368;48.698;9.116;2024-03-22T13:24:27;23.20;56.30
770;DHT22;368;48.698;9.116;2024-03-22T13:26:53;23.50;55.50
770;DHT22;368;48.698;9.116;2024-03-22T13:29:19;23.70;55.00
770;DHT22;368;48.698;9.116;2024-03-22T13:31:45;23.70;54.80
770;DHT22;368;48.698;9.116;2024-03-22T13:34:13;23.60;55.40
770;DHT22;368;48.698;9.116;2024-03-22T13:36:39;23.30;55.70
770;DHT22;368;48.698;9.116;2024-03-22T13:39:06;22.60;56.20
770;DHT22;368;48.698;9.116;2024-03-22T13:41:32;22.20;56.70
770;DHT22;368;48.698;9.116;2024-03-22T13:43:58;22.40;58.80
770;DHT22;368;48.698;9.116;2024-03-22T13:46:29;22.10;56.40
770;DHT22;368;48.698;9.116;2024-03-22T13:48:57;22.40;55.50
770;DHT22;368;48.698;9.116;2024-03-22T13:51:24;22.50;55.40
770;DHT22;368;48.698;9.116;2024-03-22T13:53:53;23.30;54.30
770;DHT22;368;48.698;9.116;2024-03-22T13:56:19;24.30;54.30
770;DHT22;368;48.698;9.116;2024-03-22T13:58:46;25.30;52.10
770;DHT22;368;48.698;9.116;2024-03-22T14:01:11;25.80;50.40
770;DHT22;368;48.698;9.116;2024-03-22T14:03:38;26.00;50.40
770;DHT22;368;48.698;9.116;2024-03-22T14:06:04;26.00;49.80
770;DHT22;368;48.698;9.116;2024-03-22T14:08:32;25.90;52.00
770;DHT22;368;48.698;9.116;2024-03-22T14:10:58;26.50;49.90
770;DHT22;368;48.698;9.116;2024-03-22T14:13:25;26.30;48.60
770;DHT22;368;48.698;9.116;2024-03-22T14:15:50;25.70;49.00
770;DHT22;368;48.698;9.116;2024-03-22T14:18:17;25.30;49.50
770;DHT22;368;48.698;9.116;2024-03-22T14:20:43;24.70;50.20
770;DHT22;368;48.698;9.116;2024-03-22T14:23:10;24.50;49.30
770;DHT22;368;48.698;9.116;2024-03-22T14:25:37;23.80;50.40
770;DHT22;368;48.698;9.116;2024-03-22T14:28:14;22.80;54.50
770;DHT22;368;48.698;9.116;2024-03-22T14:30:40;22.90;52.90
770;DHT22;368;48.698;9.116;2024-03-22T14:33:07;23.20;52.90
770;DHT22;368;48.698;9.116;2024-03-22T14:35:33;22.70;52.40
770;DHT22;368;48.698;9.116;2024-03-22T14:38:00;22.60;52.20
770;DHT22;368;48.698;9.116;2024-03-22T14:40:26;23.00;51.20
770;DHT22;368;48.698;9.116;2024-03-22T14:42:54;22.70;51.10
770;DHT22;368;48.698;9.116;2024-03-22T14:45:20;22.50;51.30
770;DHT22;368;48.698;9.116;2024-03-22T14:47:47;22.40;53.10
770;DHT22;368;48.698;9.116;2024-03-22T14:50:13;22.60;52.30
770;DHT22;368;48.698;9.116;2024-03-22T14:52:40;22.70;54.40
770;DHT22;368;48.698;9.116;2024-03-22T14:55:06;22.10;56.60
770;DHT22;368;48.698;9.116;2024-03-22T14:57:34;21.50;58.90
770;DHT22;368;48.698;9.116;2024-03-22T15:00:03;21.40;58.40
770;DHT22;368;48.698;9.116;2024-03-22T15:02:34;21.20;60.00
770;DHT22;368;48.698;9.116;2024-03-22T15:04:59;22.30;58.90
770;DHT22;368;48.698;9.116;2024-03-22T15:07:26;21.60;59.50
770;DHT22;368;48.698;9.116;2024-03-22T15:09:52;20.70;59.60
770;DHT22;368;48.698;9.116;2024-03-22T15:12:19;20.60;59.30
770;DHT22;368;48.698;9.116;2024-03-22T15:14:45;20.10;60.50
770;DHT22;368;48.698;9.116;2024-03-22T15:17:13;19.90;60.80
770;DHT22;368;48.698;9.116;2024-03-22T15:19:41;19.00;61.20
770;DHT22;368;48.698;9.116;2024-03-22T15:22:08;18.70;62.40
770;DHT22;368;48.698;9.116;2024-03-22T15:24:34;18.40;61.50
770;DHT22;368;48.698;9.116;2024-03-22T15:27:01;18.40;62.10
770;DHT22;368;48.698;9.116;2024-03-22T15:29:26;18.10;62.40
770;DHT22;368;48.698;9.116;2024-03-22T15:31:53;18.10;62.00
770;DHT22;368;48.698;9.116;2024-03-22T15:34:20;18.30;62.50
770;DHT22;368;48.698;9.116;2024-03-22T15:36:48;17.90;61.60
770;DHT22;368;48.698;9.116;2024-03-22T15:39:15;18.00;60.70
770;DHT22;368;48.698;9.116;2024-03-22T15:41:43;18.00;62.30
770;DHT22;368;48.698;9.116;2024-03-22T15:44:09;18.10;61.20
770;DHT22;368;48.698;9.116;2024-03-22T15:46:37;18.20;62.00
770;DHT22;368;48.698;9.116;2024-03-22T15:49:03;18.50;62.30
770;DHT22;368;48.698;9.116;2024-03-22T15:51:31;18.20;61.80
770;DHT22;368;48.698;9.116;2024-03-22T15:53:57;18.00;63.90
770;DHT22;368;48.698;9.116;2024-03-22T15:56:24;18.10;63.60
770;DHT22;368;48.698;9.116;2024-03-22T15:58:50;18.10;63.40
770;DHT22;368;48.698;9.116;2024-03-22T16:01:16;17.70;63.00
770;DHT22;368;48.698;9.116;2024-03-22T16:03:42;17.60;64.40
770;DHT22;368;48.698;9.116;2024-03-22T16:06:09;17.20;65.80
770;DHT22;368;48.698;9.116;2024-03-22T16:08:36;17.40;64.50
770;DHT22;368;48.698;9.116;2024-03-22T16:11:03;17.30;63.40
770;DHT22;368;48.698;9.116;2024-03-22T16:13:29;17.30;64.20
770;DHT22;368;48.698;9.116;2024-03-22T16:15:55;17.30;64.90
770;DHT22;368;48.698;9.116;2024-03-22T16:18:21;17.30;65.60
770;DHT22;368;48.698;9.116;2024-03-22T16:20:48;17.40;64.10
770;DHT22;368;48.698;9.116;2024-03-22T16:23:14;17.30;65.20
770;DHT22;368;48.698;9.116;2024-03-22T16:25:42;17.30;67.10
770;DHT22;368;48.698;9.116;2024-03-22T16:28:08;17.30;67.60
770;DHT22;368;48.698;9.116;2024-03-22T16:30:35;17.30;66.40
770;DHT22;368;48.698;9.116;2024-03-22T16:33:01;17.20;63.60
770;DHT22;368;48.698;9.116;2024-03-22T16:35:28;17.20;64.80
770;DHT22;368;48.698;9.116;2024-03-22T16:37:54;17.20;64.40